Aérodrome :
LOGIN :

S'inscrire | Disclaimer

   EN    FR    IT 

 










Légende :    VFR   VFR Marginal   IFR   IFR Intensif   IFR Très Intensif
Visi : 
Plafond : 
>= 8 km
>= 3000ft
5 à 8 km
1000 à 3000 ft
1500m à 5 km
500 à 1000 ft
800 à 1500m
200 à 500 ft
< 800m
< 200 ft
Symboles :   Orages  Brouillard  Fortes neiges  Fortes précipitations  Vent > 20 kt
SIGMETs :   Divers  Orages  Givrage  Turbulence  Onde Orograph.  Cendres Volcan.






- Altitude de l'aérodrome : 416 ft
- Code IATA : OVD


LEAS - Asturias

DERNIER METAR :
  • 231930Z 16004KT 110V190 5000 BR BKN005 09/09 Q1033 TEMPO 3000

METARs EXPIRÉS :
  • 231900Z 15003KT 100V190 5000 BR BKN006 10/08 Q1033 TEMPO 3000
  • 231830Z VRB01KT 5000 BR BKN006 09/08 Q1033 TEMPO 3000
  • 231800Z VRB02KT 5000 BR BKN006 10/08 Q1033 TEMPO 3000
  • 231730Z VRB01KT 5000 BR BKN006 10/08 Q1033 TEMPO 3000
  • 231700Z VRB02KT 5000 BR BKN006 10/08 Q1033 TEMPO 3000 SCT005

TAF AMD TAF LEAS
Valide du 23 à 18h jusqu'au 24 à 15h UTC


231834Z 2318/2415 30005KT 7000 BKN005 TX13/2415Z TN06/2407Z
TEMPO 2318/2321 SCT005
TEMPO 2321/2409 3000 BR BKN010
PROB40
TEMPO 2323/2408 0800 BCFG BKN002
BECMG 2408/2412 SCT005



MET'MAP, la Météo Aéronautique d'un coup d'oeil ! - Copyright ORBIFLY Décembre 2007 - Disclaimer

ORBIFLY MET'MAP TEAM :

Programmation & Développement : Alexandra Zaïnal
Sur une idée originale de : Baudouin d'Aumeries
Assistance à la programmation : Marc-Olivier Méhu
Soutien technique & logistique : Manuel Goepfert

Contact : metmap@orbifly.com




SOURCES & CREDITS :

   NOAA